createdAt,value
2022-08-16T00:00:38.407Z,9.65
2022-08-16T00:03:13.647Z,8.43
2022-08-16T00:05:48.552Z,8.60
2022-08-16T00:08:35.722Z,9.25
2022-08-16T00:11:07.762Z,6.95
2022-08-16T00:13:53.699Z,8.35
2022-08-16T00:17:05.551Z,7.30
2022-08-16T00:19:22.379Z,7.50
2022-08-16T00:21:54.439Z,11.43
2022-08-16T00:24:32.301Z,9.90
2022-08-16T00:27:03.195Z,8.98
2022-08-16T00:29:31.907Z,8.73
2022-08-16T00:32:05.729Z,7.78
2022-08-16T00:34:43.601Z,8.95
2022-08-16T00:37:24.398Z,8.00
2022-08-16T00:39:56.920Z,8.32
2022-08-16T00:42:30.275Z,7.15
2022-08-16T00:45:25.316Z,9.90
2022-08-16T00:47:54.700Z,9.57
2022-08-16T00:50:36.300Z,8.45
2022-08-16T00:53:07.739Z,7.43
2022-08-16T00:55:38.390Z,7.70
2022-08-16T00:58:13.006Z,8.35
2022-08-16T01:00:53.919Z,6.88
2022-08-16T01:03:30.369Z,8.05
2022-08-16T01:06:00.287Z,10.80
2022-08-16T01:08:53.705Z,8.45
2022-08-16T01:11:25.236Z,7.40
2022-08-16T01:14:11.940Z,7.85
2022-08-16T01:16:43.986Z,9.02
2022-08-16T01:19:21.767Z,8.10
2022-08-16T01:22:48.280Z,7.50
2022-08-16T01:25:00.582Z,7.72
2022-08-16T01:27:55.413Z,7.05
2022-08-16T01:30:30.870Z,7.78
2022-08-16T01:33:14.489Z,10.18
2022-08-16T01:35:56.197Z,9.45
2022-08-16T01:38:34.455Z,9.20
2022-08-16T01:41:07.971Z,7.90
2022-08-16T01:43:39.990Z,10.15
2022-08-16T01:46:37.135Z,9.23
2022-08-16T01:49:16.222Z,9.55
2022-08-16T01:51:51.508Z,14.65
2022-08-16T01:54:30.520Z,10.68
2022-08-16T01:57:00.612Z,9.30
2022-08-16T01:59:31.176Z,7.68
2022-08-16T02:02:00.965Z,10.57
2022-08-16T02:04:49.801Z,10.40
2022-08-16T02:07:23.642Z,8.57
2022-08-16T02:09:58.747Z,8.55
2022-08-16T02:12:49.541Z,8.27
2022-08-16T02:15:26.455Z,9.73
2022-08-16T02:18:01.270Z,7.82
2022-08-16T02:20:32.968Z,9.82
2022-08-16T02:23:05.983Z,8.48
2022-08-16T02:25:52.315Z,8.98
2022-08-16T02:28:23.899Z,8.68
2022-08-16T02:30:54.025Z,8.60
2022-08-16T02:33:43.672Z,11.00
2022-08-16T02:39:07.649Z,9.90
2022-08-16T02:41:40.023Z,11.45
2022-08-16T02:44:11.304Z,9.93
2022-08-16T02:46:50.733Z,10.60
2022-08-16T02:49:58.296Z,8.43
2022-08-16T02:52:24.466Z,11.05
2022-08-16T02:54:55.747Z,8.90
2022-08-16T02:57:26.148Z,10.23
2022-08-16T02:59:54.668Z,9.00
2022-08-16T03:02:32.132Z,8.60
2022-08-16T03:05:02.041Z,9.35
2022-08-16T03:07:37.097Z,9.32
2022-08-16T03:10:08.809Z,9.15
2022-08-16T03:12:55.258Z,9.80
2022-08-16T03:15:27.590Z,9.35
2022-08-16T03:17:56.745Z,8.63
2022-08-16T03:20:32.252Z,13.05
2022-08-16T03:23:02.244Z,8.82
2022-08-16T03:25:44.268Z,13.55
2022-08-16T03:28:14.055Z,8.23
2022-08-16T03:30:47.542Z,10.70
2022-08-16T03:33:16.932Z,9.55
2022-08-16T03:35:59.318Z,10.57
2022-08-16T03:38:47.645Z,10.25
2022-08-16T03:41:25.244Z,10.60
2022-08-16T03:43:59.497Z,10.40
2022-08-16T03:46:48.215Z,10.13
2022-08-16T03:49:22.850Z,10.27
2022-08-16T03:51:54.427Z,8.52
2022-08-16T03:54:28.599Z,10.02
2022-08-16T03:56:58.819Z,12.23
2022-08-16T03:59:31.599Z,9.48
2022-08-16T04:02:22.906Z,8.45
2022-08-16T04:05:01.912Z,9.18
2022-08-16T04:07:34.797Z,8.98
2022-08-16T04:10:37.256Z,11.40
2022-08-16T04:13:04.594Z,10.05
2022-08-16T04:15:38.411Z,10.10
2022-08-16T04:18:20.017Z,11.60
2022-08-16T04:20:51.121Z,9.15
2022-08-16T04:23:23.436Z,9.35
2022-08-16T04:25:54.765Z,10.85
2022-08-16T04:28:29.166Z,9.25
2022-08-16T04:31:12.464Z,11.10
2022-08-16T04:33:51.038Z,9.90
2022-08-16T04:36:21.827Z,10.85
2022-08-16T04:38:50.213Z,9.70
2022-08-16T04:41:32.588Z,11.50
2022-08-16T04:44:02.959Z,10.02
2022-08-16T04:47:00.830Z,9.55
2022-08-16T04:49:38.371Z,9.68
2022-08-16T04:52:33.094Z,11.00
2022-08-16T04:55:00.386Z,9.88
2022-08-16T04:57:30.184Z,10.77
2022-08-16T04:59:58.469Z,10.88
2022-08-16T05:02:42.090Z,10.73
2022-08-16T05:05:17.093Z,10.50
2022-08-16T05:07:57.886Z,10.30
2022-08-16T05:10:28.260Z,10.98
2022-08-16T05:13:01.378Z,8.68
2022-08-16T05:15:30.764Z,10.90
2022-08-16T05:18:03.501Z,7.60
2022-08-16T05:21:01.184Z,8.50
2022-08-16T05:23:31.764Z,8.65
2022-08-16T05:26:01.510Z,9.65
2022-08-16T05:28:37.695Z,12.57
2022-08-16T05:31:08.953Z,10.38
2022-08-16T05:33:38.946Z,13.15
2022-08-16T05:36:14.263Z,12.35
2022-08-16T05:38:49.783Z,12.55
2022-08-16T05:41:19.113Z,14.02
2022-08-16T05:43:47.815Z,17.95
2022-08-16T05:46:30.546Z,12.40
2022-08-16T05:49:09.369Z,12.07
2022-08-16T05:51:42.338Z,12.35
2022-08-16T05:54:17.601Z,12.65
2022-08-16T05:56:54.503Z,14.88
2022-08-16T05:59:24.759Z,15.02
2022-08-16T06:01:56.038Z,18.65
2022-08-16T06:04:35.656Z,14.88
2022-08-16T06:07:08.973Z,15.07
2022-08-16T06:09:59.610Z,15.07
2022-08-16T06:12:29.179Z,14.75
2022-08-16T06:15:07.690Z,16.15
2022-08-16T06:17:42.328Z,13.95
2022-08-16T06:20:23.125Z,16.92
2022-08-16T06:22:59.007Z,16.98
2022-08-16T06:25:43.113Z,17.67
2022-08-16T06:28:17.068Z,14.85
2022-08-16T06:30:46.667Z,15.50
2022-08-16T06:33:22.162Z,15.27
2022-08-16T06:35:55.324Z,14.48
2022-08-16T06:38:32.657Z,15.55
2022-08-16T06:41:13.448Z,31.45
2022-08-16T06:43:43.559Z,43.15
2022-08-16T06:46:34.501Z,12.88
2022-08-16T06:49:12.412Z,15.88
2022-08-16T06:51:46.572Z,15.43
2022-08-16T06:54:20.673Z,15.98
2022-08-16T06:56:52.444Z,15.30
2022-08-16T07:01:55.296Z,16.52
2022-08-16T07:04:33.067Z,15.80
2022-08-16T07:07:09.773Z,15.40
2022-08-16T07:09:38.930Z,14.77
2022-08-16T07:12:08.898Z,14.98
2022-08-16T07:14:41.606Z,16.25
2022-08-16T07:17:14.493Z,16.10
2022-08-16T07:20:02.580Z,18.40
2022-08-16T07:22:50.870Z,18.58
2022-08-16T07:25:34.317Z,13.30
2022-08-16T07:28:12.142Z,15.40
2022-08-16T07:30:50.598Z,12.77
2022-08-16T07:33:51.534Z,14.88
2022-08-16T07:36:21.919Z,15.25
2022-08-16T07:38:52.324Z,12.35
2022-08-16T07:41:21.381Z,13.48
2022-08-16T07:43:55.018Z,16.38
2022-08-16T07:46:38.384Z,12.15
2022-08-16T07:49:18.987Z,16.60
2022-08-16T07:51:47.886Z,12.93
2022-08-16T07:54:20.701Z,11.70
2022-08-16T07:56:53.216Z,10.57
2022-08-16T07:59:24.001Z,11.52
2022-08-16T08:01:53.310Z,11.30
2022-08-16T08:04:23.105Z,11.85
2022-08-16T08:06:52.135Z,11.15
2022-08-16T08:09:20.554Z,11.45
2022-08-16T08:12:00.864Z,12.30
2022-08-16T08:14:34.276Z,11.65
2022-08-16T08:17:08.662Z,10.90
2022-08-16T08:19:41.029Z,9.32
2022-08-16T08:22:19.114Z,8.48
2022-08-16T08:24:53.342Z,7.10
2022-08-16T08:27:27.538Z,7.05
2022-08-16T08:30:50.636Z,8.05
2022-08-16T08:32:59.736Z,9.60
2022-08-16T08:35:32.379Z,9.95
2022-08-16T08:38:04.014Z,6.13
2022-08-16T08:40:38.624Z,9.25
2022-08-16T08:43:17.931Z,6.80
2022-08-16T08:45:55.657Z,6.35
2022-08-16T08:48:33.594Z,8.10
2022-08-16T08:51:09.718Z,8.35
2022-08-16T08:53:57.284Z,9.00
2022-08-16T08:56:35.110Z,8.43
2022-08-16T08:59:40.621Z,10.45
2022-08-16T09:02:11.590Z,6.60
2022-08-16T09:04:47.926Z,5.70
2022-08-16T09:07:21.239Z,5.60
2022-08-16T09:10:06.835Z,6.85
2022-08-16T09:12:42.180Z,9.50
2022-08-16T09:15:21.578Z,6.72
2022-08-16T09:17:55.906Z,7.47
2022-08-16T09:20:29.429Z,12.10
2022-08-16T09:22:58.906Z,7.68
2022-08-16T09:25:33.769Z,8.13
2022-08-16T09:28:08.917Z,5.07
2022-08-16T09:30:44.028Z,7.78
2022-08-16T09:35:42.794Z,11.13
2022-08-16T09:38:32.038Z,8.00
2022-08-16T09:41:02.661Z,7.43
2022-08-16T09:43:59.796Z,7.45
2022-08-16T09:46:49.156Z,8.30
2022-08-16T09:49:08.402Z,5.55
2022-08-16T09:51:38.053Z,5.88
2022-08-16T09:54:09.736Z,6.75
2022-08-16T09:56:52.523Z,6.80
2022-08-16T09:59:25.786Z,7.47
2022-08-16T10:01:59.615Z,10.45
2022-08-16T10:04:44.298Z,7.35
2022-08-16T10:07:19.647Z,6.78
2022-08-16T10:09:54.683Z,8.07
2022-08-16T10:12:55.691Z,8.77
2022-08-16T10:15:30.338Z,55.72
2022-08-16T10:18:02.628Z,8.75
2022-08-16T10:20:52.526Z,10.07
2022-08-16T10:23:22.610Z,6.53
2022-08-16T10:27:03.787Z,5.60
2022-08-16T10:28:42.322Z,7.40
2022-08-16T10:31:11.911Z,7.07
2022-08-16T10:33:45.056Z,7.75
2022-08-16T10:36:38.847Z,7.45
2022-08-16T10:39:10.733Z,13.82
2022-08-16T10:41:41.555Z,8.07
2022-08-16T10:44:15.130Z,7.72
2022-08-16T10:46:45.724Z,10.38
2022-08-16T10:49:16.878Z,8.25
2022-08-16T10:52:01.388Z,10.38
2022-08-16T10:54:32.170Z,8.38
2022-08-16T10:57:04.275Z,11.18
2022-08-16T10:59:46.037Z,8.70
2022-08-16T11:02:58.197Z,14.43
2022-08-16T11:05:15.326Z,10.23
2022-08-16T11:07:52.226Z,8.63
2022-08-16T11:13:58.262Z,8.52
2022-08-16T11:16:26.647Z,11.90
2022-08-16T11:19:05.463Z,9.13
2022-08-16T11:24:42.627Z,7.57
2022-08-16T11:27:20.145Z,7.88
2022-08-16T11:29:54.822Z,8.02
2022-08-16T11:32:31.223Z,6.38
2022-08-16T11:35:13.183Z,6.18
2022-08-16T11:38:47.456Z,8.38
2022-08-16T11:40:56.653Z,5.50
2022-08-16T11:43:28.843Z,8.65
2022-08-16T11:46:01.425Z,7.68
2022-08-16T11:48:48.449Z,7.97
2022-08-16T11:51:16.339Z,6.50
2022-08-16T11:53:44.528Z,10.15
2022-08-16T11:56:14.747Z,6.40
2022-08-16T11:58:43.860Z,6.10
2022-08-16T12:01:20.007Z,6.93
2022-08-16T12:03:57.847Z,7.90
2022-08-16T12:06:30.666Z,8.63
2022-08-16T12:09:02.041Z,8.32
2022-08-16T12:11:32.030Z,9.07
2022-08-16T12:14:04.598Z,5.25
2022-08-16T12:16:34.938Z,6.28
2022-08-16T12:19:10.585Z,6.25
2022-08-16T12:21:58.380Z,7.93
2022-08-16T12:24:28.456Z,8.15
2022-08-16T12:26:57.756Z,6.10
2022-08-16T12:29:29.995Z,6.57
2022-08-16T12:32:26.552Z,6.78
2022-08-16T12:34:52.852Z,7.20
2022-08-16T12:37:24.353Z,7.85
2022-08-16T12:39:56.439Z,7.15
2022-08-16T12:42:34.742Z,12.25
2022-08-16T12:45:09.885Z,12.82
2022-08-16T12:48:15.927Z,7.53
2022-08-16T12:50:49.375Z,9.15
2022-08-16T12:55:49.967Z,4.65
2022-08-16T12:58:48.415Z,6.65
2022-08-16T13:01:11.407Z,5.50
2022-08-16T13:03:41.037Z,5.90
2022-08-16T13:06:09.786Z,7.18
2022-08-16T13:08:41.927Z,7.13
2022-08-16T13:11:24.253Z,8.13
2022-08-16T13:13:54.784Z,6.72
2022-08-16T13:16:25.026Z,6.63
2022-08-16T13:18:55.289Z,6.32
2022-08-16T13:21:23.937Z,8.00
2022-08-16T13:23:55.569Z,11.50
2022-08-16T13:26:26.373Z,7.15
2022-08-16T13:28:55.221Z,7.07
2022-08-16T13:31:24.236Z,6.85
2022-08-16T13:33:58.583Z,8.18
2022-08-16T13:39:15.968Z,6.53
2022-08-16T13:41:44.731Z,6.43
2022-08-16T13:44:22.441Z,8.15
2022-08-16T13:47:10.476Z,8.88
2022-08-16T13:49:39.049Z,6.93
2022-08-16T13:52:08.673Z,9.18
2022-08-16T13:54:39.828Z,7.50
2022-08-16T13:57:11.796Z,7.80
2022-08-16T13:59:45.347Z,9.07
2022-08-16T14:02:13.955Z,10.13
2022-08-16T14:04:44.267Z,7.07
2022-08-16T14:07:19.932Z,9.05
2022-08-16T14:09:55.282Z,9.73
2022-08-16T14:12:29.733Z,6.25
2022-08-16T14:14:58.844Z,7.70
2022-08-16T14:17:29.133Z,5.88
2022-08-16T14:20:00.071Z,8.50
2022-08-16T14:22:42.312Z,8.05
2022-08-16T14:25:19.726Z,6.95
2022-08-16T14:27:48.208Z,6.50
2022-08-16T14:30:24.995Z,8.18
2022-08-16T14:32:54.207Z,13.75
2022-08-16T14:35:36.781Z,8.93
2022-08-16T14:38:18.353Z,5.30
2022-08-16T14:40:52.784Z,4.55
2022-08-16T14:43:25.173Z,7.07
2022-08-16T14:45:55.494Z,4.47
2022-08-16T14:48:25.856Z,7.25
2022-08-16T14:50:55.571Z,6.85
2022-08-16T14:53:25.650Z,6.20
2022-08-16T14:55:55.448Z,8.68
2022-08-16T14:58:34.739Z,6.90
2022-08-16T15:01:10.205Z,10.98
2022-08-16T15:03:44.548Z,12.95
2022-08-16T15:06:14.605Z,7.35
2022-08-16T15:08:45.195Z,6.72
2022-08-16T15:11:14.614Z,7.82
2022-08-16T15:13:42.910Z,10.40
2022-08-16T15:16:14.213Z,12.68
2022-08-16T15:18:42.603Z,8.52
2022-08-16T15:21:18.660Z,8.30
2022-08-16T15:23:47.020Z,7.85
2022-08-16T15:26:29.588Z,9.32
2022-08-16T15:29:03.865Z,11.40
2022-08-16T15:31:32.205Z,9.77
2022-08-16T15:34:03.767Z,11.50
2022-08-16T15:36:31.999Z,14.95
2022-08-16T15:39:07.024Z,13.27
2022-08-16T15:41:48.590Z,10.00
2022-08-16T15:44:23.118Z,16.55
2022-08-16T15:46:58.778Z,12.82
2022-08-16T15:49:37.688Z,10.88
2022-08-16T15:52:38.111Z,11.65
2022-08-16T15:55:23.574Z,13.13
2022-08-16T15:57:52.484Z,11.52
2022-08-16T16:00:21.708Z,14.35
2022-08-16T16:02:59.088Z,13.07
2022-08-16T16:05:29.598Z,14.50
2022-08-16T16:08:11.243Z,14.75
2022-08-16T16:10:43.334Z,17.23
2022-08-16T16:13:13.043Z,17.73
2022-08-16T16:15:45.029Z,13.65
2022-08-16T16:18:14.376Z,11.95
2022-08-16T16:20:47.930Z,12.10
2022-08-16T16:23:54.896Z,11.82
2022-08-16T16:26:39.909Z,12.00
2022-08-16T16:29:17.742Z,11.30
2022-08-16T16:32:10.112Z,12.20
2022-08-16T16:34:43.432Z,14.02
2022-08-16T16:37:36.827Z,11.15
2022-08-16T16:40:08.390Z,12.98
2022-08-16T16:42:45.665Z,15.02
2022-08-16T16:45:15.305Z,12.93
2022-08-16T16:47:54.859Z,12.23
2022-08-16T16:50:24.271Z,12.43
2022-08-16T16:52:59.505Z,13.40
2022-08-16T16:55:27.954Z,11.77
2022-08-16T16:58:17.835Z,13.10
2022-08-16T17:00:58.948Z,13.50
2022-08-16T17:03:28.064Z,12.57
2022-08-16T17:06:08.716Z,13.25
2022-08-16T17:08:41.410Z,14.23
2022-08-16T17:11:11.579Z,15.70
2022-08-16T17:13:40.788Z,13.93
2022-08-16T17:16:18.837Z,15.15
2022-08-16T17:19:17.515Z,14.98
2022-08-16T17:21:40.330Z,12.60
2022-08-16T17:24:18.053Z,15.13
2022-08-16T17:26:48.872Z,15.07
2022-08-16T17:29:17.182Z,16.17
2022-08-16T17:31:48.930Z,18.40
2022-08-16T17:34:29.281Z,15.93
2022-08-16T17:37:05.317Z,15.82
2022-08-16T17:39:58.187Z,16.02
2022-08-16T17:42:25.976Z,13.85
2022-08-16T17:44:54.411Z,16.10
2022-08-16T17:47:23.191Z,13.05
2022-08-16T17:49:51.197Z,14.63
2022-08-16T17:52:19.164Z,16.08
2022-08-16T17:54:47.091Z,13.25
2022-08-16T17:57:15.259Z,18.60
2022-08-16T17:59:44.992Z,15.82
2022-08-16T18:02:42.432Z,18.40
2022-08-16T18:05:07.202Z,17.73
2022-08-16T18:07:40.294Z,19.55
2022-08-16T18:10:10.458Z,17.42
2022-08-16T18:12:54.323Z,14.77
2022-08-16T18:17:53.565Z,16.50
2022-08-16T18:20:43.018Z,16.90
2022-08-16T18:23:22.593Z,12.38
2022-08-16T18:25:54.525Z,15.23
2022-08-16T18:28:23.793Z,13.55
2022-08-16T18:30:56.204Z,17.20
2022-08-16T18:33:28.225Z,16.02
2022-08-16T18:35:57.841Z,17.77
2022-08-16T18:38:26.884Z,14.82
2022-08-16T18:40:55.089Z,17.33
2022-08-16T18:44:23.867Z,14.65
2022-08-16T18:46:11.824Z,17.00
2022-08-16T18:48:39.952Z,14.77
2022-08-16T18:51:13.371Z,15.05
2022-08-16T18:53:45.685Z,14.57
2022-08-16T18:56:14.649Z,15.65
2022-08-16T18:58:45.283Z,21.65
2022-08-16T19:01:13.716Z,14.63
2022-08-16T19:03:42.002Z,16.90
2022-08-16T19:06:14.797Z,16.48
2022-08-16T19:08:44.764Z,14.18
2022-08-16T19:11:19.950Z,15.35
2022-08-16T19:13:48.940Z,18.73
2022-08-16T19:16:17.701Z,15.82
2022-08-16T19:18:50.024Z,13.48
2022-08-16T19:21:19.890Z,16.55
2022-08-16T19:23:48.274Z,17.08
2022-08-16T19:26:24.636Z,13.00
2022-08-16T19:28:59.070Z,14.05
2022-08-16T19:31:31.759Z,18.17
2022-08-16T19:34:00.171Z,16.73
2022-08-16T19:36:35.183Z,17.35
2022-08-16T19:39:16.477Z,18.60
2022-08-16T19:41:53.611Z,18.08
2022-08-16T19:44:23.522Z,15.75
2022-08-16T19:46:52.384Z,16.33
2022-08-16T19:49:20.963Z,21.42
2022-08-16T19:51:55.264Z,20.77
2022-08-16T19:54:23.449Z,19.10
2022-08-16T19:56:54.325Z,22.58
2022-08-16T19:59:40.387Z,23.15
2022-08-16T20:02:35.606Z,23.90
2022-08-16T20:05:09.551Z,19.13
2022-08-16T20:07:38.977Z,23.70
2022-08-16T20:10:15.919Z,18.98
2022-08-16T20:13:01.955Z,22.88
2022-08-16T20:15:32.370Z,23.95
2022-08-16T20:18:04.921Z,21.27
2022-08-16T20:23:24.826Z,20.02
2022-08-16T20:25:55.948Z,19.73
2022-08-16T20:28:51.822Z,19.02
2022-08-16T20:31:13.044Z,21.02
2022-08-16T20:33:42.636Z,26.65
2022-08-16T20:36:16.539Z,19.85
2022-08-16T20:38:47.419Z,28.77
2022-08-16T20:41:17.203Z,22.17
2022-08-16T20:43:46.226Z,19.88
2022-08-16T20:46:14.950Z,19.00
2022-08-16T20:48:43.173Z,21.55
2022-08-16T20:51:12.745Z,20.27
2022-08-16T20:53:42.891Z,25.00
2022-08-16T20:56:12.396Z,19.95
2022-08-16T20:58:40.985Z,25.38
2022-08-16T21:01:09.730Z,21.13
2022-08-16T21:03:38.620Z,23.13
2022-08-16T21:06:08.713Z,20.92
2022-08-16T21:08:53.026Z,19.63
2022-08-16T21:11:23.579Z,21.85
2022-08-16T21:13:51.563Z,19.85
2022-08-16T21:16:28.560Z,22.00
2022-08-16T21:18:56.610Z,20.52
2022-08-16T21:21:24.577Z,23.42
2022-08-16T21:24:00.279Z,23.48
2022-08-16T21:26:28.267Z,25.35
2022-08-16T21:28:56.705Z,25.20
2022-08-16T21:31:25.065Z,17.98
2022-08-16T21:33:55.730Z,21.38
2022-08-16T21:36:34.885Z,23.13
2022-08-16T21:39:06.907Z,24.95
2022-08-16T21:41:37.983Z,23.38
2022-08-16T21:44:06.786Z,24.00
2022-08-16T21:46:34.877Z,22.73
2022-08-16T21:49:04.651Z,23.42
2022-08-16T21:51:33.018Z,27.63
2022-08-16T21:54:00.987Z,24.23
2022-08-16T21:56:29.363Z,29.15
2022-08-16T21:58:57.400Z,25.65
2022-08-16T22:01:26.400Z,23.30
2022-08-16T22:04:35.229Z,25.95
2022-08-16T22:06:43.675Z,30.10
2022-08-16T22:09:15.190Z,22.45
2022-08-16T22:11:44.408Z,26.38
2022-08-16T22:14:12.465Z,25.42
2022-08-16T22:16:41.959Z,28.50
2022-08-16T22:19:09.919Z,28.10
2022-08-16T22:21:38.446Z,29.48
2022-08-16T22:24:06.832Z,25.10
2022-08-16T22:26:42.343Z,23.10
2022-08-16T22:29:13.930Z,22.73
2022-08-16T22:31:43.521Z,23.83
2022-08-16T22:34:11.783Z,24.23
2022-08-16T22:36:40.039Z,26.30
2022-08-16T22:39:10.895Z,22.90
2022-08-16T22:41:40.362Z,23.33
2022-08-16T22:44:09.349Z,22.48
2022-08-16T22:46:38.037Z,21.55
2022-08-16T22:49:07.990Z,25.25
2022-08-16T22:51:37.837Z,22.75
2022-08-16T22:54:44.178Z,27.98
2022-08-16T22:56:56.434Z,25.02
2022-08-16T22:59:25.158Z,21.55
2022-08-16T23:01:53.552Z,22.25
2022-08-16T23:04:24.969Z,21.65
2022-08-16T23:06:53.257Z,24.80
2022-08-16T23:09:21.772Z,21.67
2022-08-16T23:11:49.912Z,23.92
2022-08-16T23:14:21.451Z,21.30
2022-08-16T23:16:49.736Z,24.73
2022-08-16T23:19:17.914Z,26.50
2022-08-16T23:21:47.104Z,23.83
2022-08-16T23:24:20.232Z,22.05
2022-08-16T23:26:49.333Z,23.48
2022-08-16T23:29:24.179Z,23.75
2022-08-16T23:31:59.177Z,23.88
2022-08-16T23:34:28.953Z,25.05
2022-08-16T23:36:57.290Z,25.13
2022-08-16T23:39:25.531Z,24.20
2022-08-16T23:41:53.673Z,24.48
2022-08-16T23:44:42.307Z,27.95
2022-08-16T23:47:09.598Z,25.73
2022-08-16T23:50:01.110Z,23.50
2022-08-16T23:52:42.124Z,22.73
2022-08-16T23:55:16.362Z,24.27
2022-08-16T23:57:46.174Z,25.35
